Glacier Natl Park, Montana
Current Conditions -  °F | °C
As of 11:55 PM on Thursday 27 Nov 2014 (Local Time) from KGPI Reporting Station
Overcast Overcast  
Wind Chill: 40°   Ceiling: 3800
Heat Index: 44°   Visibility: 10mi
Dew Point: 38°   Wind: 7mph
Humidity: 79%   Direction: 200°SSW
Pressure: 29.68"   Gusts: NA
Location:  48.58°N, 113.67°W
Report Text: KGPI 280655Z AUTO 20006KT 10SM OVC038 07/03 A2968 RMK AO2 SLP060 T00670033 400940000
Loading
Personal Weather Stations






























Interactive Weather Map New forecast layout! Learn more

10-Day Weather Forecast

Advertisements
Track Severe Weather on mobile